createdAt,value
2023-04-12T00:02:22.383Z,56.70
2023-04-12T00:04:55.437Z,56.80
2023-04-12T00:07:24.157Z,56.90
2023-04-12T00:09:51.365Z,57.00
2023-04-12T00:12:19.382Z,57.20
2023-04-12T00:14:46.821Z,57.40
2023-04-12T00:17:14.185Z,57.60
2023-04-12T00:19:41.966Z,57.50
2023-04-12T00:22:12.851Z,57.70
2023-04-12T00:24:41.543Z,57.80
2023-04-12T00:27:08.937Z,57.80
2023-04-12T00:29:36.191Z,58.20
2023-04-12T00:32:05.742Z,58.20
2023-04-12T00:34:32.806Z,58.40
2023-04-12T00:37:02.046Z,58.50
2023-04-12T00:39:29.409Z,58.60
2023-04-12T00:41:57.087Z,59.40
2023-04-12T00:44:24.227Z,59.00
2023-04-12T00:46:51.534Z,59.00
2023-04-12T00:49:21.574Z,59.30
2023-04-12T00:51:48.529Z,59.50
2023-04-12T00:54:18.254Z,59.60
2023-04-12T00:56:47.380Z,59.90
2023-04-12T00:59:14.413Z,60.00
2023-04-12T01:01:41.910Z,60.30
2023-04-12T01:04:09.352Z,60.20
2023-04-12T01:06:49.594Z,60.30
2023-04-12T01:09:35.190Z,60.50
2023-04-12T01:12:29.514Z,60.50
2023-04-12T01:15:26.458Z,60.70
2023-04-12T01:17:59.026Z,60.80
2023-04-12T01:20:31.740Z,61.00
2023-04-12T01:23:11.516Z,61.30
2023-04-12T01:25:46.000Z,61.30
2023-04-12T01:28:22.564Z,61.30
2023-04-12T01:30:52.162Z,61.50
2023-04-12T01:33:20.773Z,61.50
2023-04-12T01:35:49.994Z,61.80
2023-04-12T01:38:17.562Z,61.80
2023-04-12T01:40:44.963Z,61.80
2023-04-12T01:43:14.066Z,62.00
2023-04-12T01:45:41.194Z,61.90
2023-04-12T01:48:12.713Z,62.00
2023-04-12T01:50:53.757Z,62.00
2023-04-12T01:53:23.958Z,62.20
2023-04-12T01:55:52.152Z,62.10
2023-04-12T01:58:22.685Z,62.10
2023-04-12T02:00:52.124Z,62.30
2023-04-12T02:03:21.961Z,62.50
2023-04-12T02:05:52.009Z,62.50
2023-04-12T02:08:19.405Z,62.40
2023-04-12T02:10:46.302Z,62.50
2023-04-12T02:13:13.155Z,62.50
2023-04-12T02:15:40.753Z,63.10
2023-04-12T02:18:07.992Z,62.60
2023-04-12T02:20:35.968Z,62.70
2023-04-12T02:23:02.827Z,62.70
2023-04-12T02:25:29.661Z,62.80
2023-04-12T02:27:57.727Z,62.80
2023-04-12T02:30:24.602Z,62.90
2023-04-12T02:32:53.364Z,63.00
2023-04-12T02:35:20.261Z,63.00
2023-04-12T02:37:48.630Z,63.00
2023-04-12T02:40:16.041Z,63.10
2023-04-12T02:42:44.468Z,63.10
2023-04-12T02:45:12.243Z,63.10
2023-04-12T02:47:41.155Z,63.10
2023-04-12T02:50:08.666Z,63.00
2023-04-12T02:52:35.898Z,63.00
2023-04-12T02:55:03.314Z,63.20
2023-04-12T02:57:30.292Z,63.10
2023-04-12T02:59:57.334Z,63.20
2023-04-12T03:02:24.230Z,63.10
2023-04-12T03:04:51.387Z,63.10
2023-04-12T03:07:19.759Z,63.30
2023-04-12T03:09:47.821Z,63.20
2023-04-12T03:12:16.128Z,63.30
2023-04-12T03:14:43.297Z,63.30
2023-04-12T03:17:11.034Z,63.30
2023-04-12T03:19:38.681Z,63.40
2023-04-12T03:22:06.241Z,63.50
2023-04-12T03:24:37.188Z,63.50
2023-04-12T03:27:07.998Z,63.50
2023-04-12T03:29:34.960Z,63.50
2023-04-12T03:32:01.757Z,63.50
2023-04-12T03:34:34.689Z,63.50
2023-04-12T03:37:02.260Z,63.50
2023-04-12T03:39:29.396Z,63.50
2023-04-12T03:41:56.243Z,63.60
2023-04-12T03:44:26.279Z,63.60
2023-04-12T03:46:53.890Z,63.50
2023-04-12T03:49:22.352Z,63.60
2023-04-12T03:51:51.023Z,63.70
2023-04-12T03:54:17.778Z,63.70
2023-04-12T03:56:46.069Z,63.70
2023-04-12T03:59:14.919Z,63.70
2023-04-12T04:01:41.967Z,63.80
2023-04-12T04:04:08.975Z,63.80
2023-04-12T04:06:36.260Z,63.80
2023-04-12T04:09:03.418Z,63.90
2023-04-12T04:11:31.821Z,64.00
2023-04-12T04:14:00.978Z,64.10
2023-04-12T04:16:29.389Z,64.10
2023-04-12T04:18:56.517Z,64.20
2023-04-12T04:21:24.067Z,64.20
2023-04-12T04:23:52.222Z,64.30
2023-04-12T04:26:19.123Z,64.30
2023-04-12T04:28:46.942Z,64.40
2023-04-12T04:31:14.306Z,64.50
2023-04-12T04:33:41.816Z,64.50
2023-04-12T04:36:09.839Z,64.50
2023-04-12T04:38:37.182Z,64.50
2023-04-12T04:41:04.588Z,64.60
2023-04-12T04:43:31.822Z,64.70
2023-04-12T04:45:58.740Z,64.80
2023-04-12T04:48:27.064Z,64.70
2023-04-12T04:50:56.780Z,64.70
2023-04-12T04:53:24.797Z,64.70
2023-04-12T04:55:58.433Z,64.80
2023-04-12T04:58:26.416Z,65.50
2023-04-12T05:00:57.522Z,65.00
2023-04-12T05:03:30.259Z,65.10
2023-04-12T05:05:57.831Z,65.00
2023-04-12T05:08:25.507Z,65.00
2023-04-12T05:10:53.480Z,65.10
2023-04-12T05:13:22.525Z,65.10
2023-04-12T05:15:51.257Z,65.20
2023-04-12T05:18:18.337Z,65.20
2023-04-12T05:20:45.951Z,65.30
2023-04-12T05:23:13.243Z,65.30
2023-04-12T05:25:48.410Z,65.30
2023-04-12T05:28:16.791Z,65.30
2023-04-12T05:30:45.494Z,65.30
2023-04-12T05:33:12.821Z,65.30
2023-04-12T05:35:39.768Z,65.40
2023-04-12T05:38:06.762Z,65.50
2023-04-12T05:40:33.563Z,65.60
2023-04-12T05:43:00.724Z,65.60
2023-04-12T05:45:27.872Z,65.60
2023-04-12T05:47:56.175Z,65.80
2023-04-12T05:50:23.112Z,65.70
2023-04-12T05:52:51.163Z,65.80
2023-04-12T05:55:18.716Z,65.90
2023-04-12T05:57:47.327Z,66.00
2023-04-12T06:00:17.584Z,66.00
2023-04-12T06:02:45.700Z,66.00
2023-04-12T06:05:13.354Z,66.00
2023-04-12T06:07:42.263Z,66.00
2023-04-12T06:10:10.990Z,66.00
2023-04-12T06:12:39.424Z,66.20
2023-04-12T06:15:06.940Z,66.20
2023-04-12T06:17:35.496Z,66.30
2023-04-12T06:20:06.119Z,66.40
2023-04-12T06:22:33.703Z,66.50
2023-04-12T06:25:00.548Z,66.60
2023-04-12T06:27:27.490Z,66.50
2023-04-12T06:29:54.451Z,66.40
2023-04-12T06:32:21.849Z,66.40
2023-04-12T06:34:48.937Z,66.30
2023-04-12T06:37:16.032Z,66.40
2023-04-12T06:39:42.888Z,66.30
2023-04-12T06:42:11.208Z,66.40
2023-04-12T06:44:39.025Z,66.40
2023-04-12T06:47:06.070Z,66.50
2023-04-12T06:49:33.143Z,66.50
2023-04-12T06:51:59.977Z,66.50
2023-04-12T06:54:27.850Z,66.50
2023-04-12T06:56:54.766Z,67.00
2023-04-12T06:59:21.666Z,66.50
2023-04-12T07:01:48.534Z,66.50
2023-04-12T07:04:16.987Z,66.60
2023-04-12T07:06:44.067Z,66.60
2023-04-12T07:09:11.137Z,66.60
2023-04-12T07:11:39.025Z,66.60
2023-04-12T07:14:06.238Z,66.60
2023-04-12T07:16:34.159Z,66.60
2023-04-12T07:19:01.218Z,66.60
2023-04-12T07:21:28.297Z,66.60
2023-04-12T07:23:56.602Z,66.60
2023-04-12T07:26:23.797Z,66.70
2023-04-12T07:28:51.637Z,66.70
2023-04-12T07:31:18.820Z,66.70
2023-04-12T07:33:45.943Z,66.60
2023-04-12T07:36:13.075Z,66.60
2023-04-12T07:38:39.954Z,66.70
2023-04-12T07:41:06.879Z,66.60
2023-04-12T07:43:34.009Z,66.70
2023-04-12T07:46:04.781Z,66.70
2023-04-12T07:48:31.619Z,66.80
2023-04-12T07:50:58.640Z,66.80
2023-04-12T07:53:28.796Z,66.70
2023-04-12T07:55:56.295Z,66.80
2023-04-12T07:58:24.949Z,66.80
2023-04-12T08:00:52.309Z,66.80
2023-04-12T08:03:20.018Z,66.90
2023-04-12T08:05:49.661Z,66.90
2023-04-12T08:08:16.688Z,66.90
2023-04-12T08:10:43.802Z,66.90
2023-04-12T08:13:11.085Z,66.80
2023-04-12T08:15:38.138Z,66.80
2023-04-12T08:18:05.546Z,66.80
2023-04-12T08:20:34.518Z,66.80
2023-04-12T08:23:01.410Z,66.80
2023-04-12T08:25:28.638Z,66.80
2023-04-12T08:27:56.016Z,66.70
2023-04-12T08:30:26.784Z,66.70
2023-04-12T08:32:54.186Z,66.60
2023-04-12T08:35:21.755Z,66.50
2023-04-12T08:37:50.094Z,66.40
2023-04-12T08:40:20.007Z,66.20
2023-04-12T08:42:48.038Z,66.10
2023-04-12T08:45:15.232Z,66.00
2023-04-12T08:47:43.713Z,65.50
2023-04-12T08:50:14.353Z,65.40
2023-04-12T08:52:43.290Z,65.20
2023-04-12T08:55:11.300Z,64.90
2023-04-12T08:57:41.885Z,64.80
2023-04-12T09:00:10.083Z,64.70
2023-04-12T09:02:43.508Z,64.60
2023-04-12T09:05:10.823Z,64.50
2023-04-12T09:07:38.054Z,64.30
2023-04-12T09:10:06.206Z,63.80
2023-04-12T09:12:33.561Z,63.50
2023-04-12T09:15:13.851Z,63.20
2023-04-12T09:17:42.469Z,63.10
2023-04-12T09:20:14.821Z,62.90
2023-04-12T09:22:45.166Z,62.60
2023-04-12T09:25:13.129Z,62.40
2023-04-12T09:27:52.903Z,62.10
2023-04-12T09:30:20.779Z,62.50
2023-04-12T09:32:51.329Z,61.70
2023-04-12T09:35:18.862Z,61.40
2023-04-12T09:37:45.826Z,61.30
2023-04-12T09:40:13.410Z,61.20
2023-04-12T09:42:54.281Z,61.00
2023-04-12T09:45:24.755Z,60.50
2023-04-12T09:47:52.299Z,60.40
2023-04-12T09:50:24.485Z,59.60
2023-04-12T09:52:51.573Z,59.00
2023-04-12T09:55:19.452Z,59.00
2023-04-12T09:57:46.944Z,58.50
2023-04-12T10:00:18.279Z,58.30
2023-04-12T10:02:47.943Z,57.80
2023-04-12T10:05:18.293Z,57.70
2023-04-12T10:07:47.550Z,57.20
2023-04-12T10:10:16.749Z,57.30
2023-04-12T10:12:45.944Z,57.40
2023-04-12T10:15:15.655Z,57.50
2023-04-12T10:17:48.506Z,57.10
2023-04-12T10:20:17.392Z,57.10
2023-04-12T10:22:46.890Z,57.20
2023-04-12T10:25:15.617Z,57.30
2023-04-12T10:27:44.350Z,57.30
2023-04-12T10:30:31.471Z,57.30
2023-04-12T10:33:10.484Z,57.30
2023-04-12T10:36:11.049Z,57.40
2023-04-12T10:38:48.741Z,57.30
2023-04-12T10:41:17.404Z,56.40
2023-04-12T10:44:13.334Z,56.40
2023-04-12T10:46:49.700Z,56.30
2023-04-12T10:49:17.480Z,56.20
2023-04-12T10:52:13.960Z,56.00
2023-04-12T10:54:40.979Z,55.90
2023-04-12T10:57:28.210Z,55.60
2023-04-12T10:59:59.470Z,55.70
2023-04-12T11:02:26.592Z,56.30
2023-04-12T11:05:14.431Z,56.80
2023-04-12T11:07:43.702Z,57.00
2023-04-12T11:10:17.364Z,57.30
2023-04-12T11:12:54.951Z,57.40
2023-04-12T11:15:26.597Z,57.40
2023-04-12T11:17:58.214Z,57.40
2023-04-12T11:20:27.865Z,57.60
2023-04-12T11:22:55.956Z,57.50
2023-04-12T11:25:23.040Z,57.30
2023-04-12T11:27:54.992Z,56.40
2023-04-12T11:30:23.801Z,55.50
2023-04-12T11:32:50.824Z,55.20
2023-04-12T11:35:20.499Z,54.50
2023-04-12T11:37:47.550Z,54.50
2023-04-12T11:40:14.966Z,54.40
2023-04-12T11:42:41.968Z,53.30
2023-04-12T11:45:17.276Z,53.30
2023-04-12T11:47:46.676Z,53.30
2023-04-12T11:50:13.805Z,53.30
2023-04-12T11:52:42.335Z,51.50
2023-04-12T11:55:13.273Z,50.30
2023-04-12T11:57:40.209Z,50.50
2023-04-12T12:00:08.240Z,50.20
2023-04-12T12:02:43.569Z,50.40
2023-04-12T12:05:16.886Z,50.40
2023-04-12T12:07:46.321Z,48.70
2023-04-12T12:10:18.408Z,47.30
2023-04-12T12:12:48.070Z,47.20
2023-04-12T12:15:16.525Z,47.00
2023-04-12T12:17:43.837Z,46.60
2023-04-12T12:20:21.189Z,45.50
2023-04-12T12:22:49.294Z,45.80
2023-04-12T12:25:18.540Z,46.20
2023-04-12T12:27:48.994Z,46.40
2023-04-12T12:30:20.911Z,46.70
2023-04-12T12:32:50.781Z,46.60
2023-04-12T12:35:19.484Z,45.20
2023-04-12T12:37:55.937Z,44.30
2023-04-12T12:40:32.569Z,43.70
2023-04-12T12:43:00.174Z,43.30
2023-04-12T12:45:29.578Z,43.30
2023-04-12T12:48:04.295Z,43.20
2023-04-12T12:50:37.152Z,43.20
2023-04-12T12:53:06.192Z,43.50
2023-04-12T12:55:33.328Z,43.50
2023-04-12T13:00:30.127Z,43.20
2023-04-12T13:02:58.660Z,42.50
2023-04-12T13:05:25.694Z,43.30
2023-04-12T13:07:52.525Z,43.70
2023-04-12T13:10:19.799Z,44.10
2023-04-12T13:12:46.616Z,45.30
2023-04-12T13:17:44.515Z,43.50
2023-04-12T13:20:12.632Z,42.60
2023-04-12T13:22:39.593Z,42.10
2023-04-12T13:25:07.031Z,41.10
2023-04-12T13:27:34.180Z,41.70
2023-04-12T13:30:01.192Z,41.60
2023-04-12T13:32:29.027Z,42.00
2023-04-12T13:34:56.087Z,41.90
2023-04-12T13:37:24.039Z,41.80
2023-04-12T13:39:51.721Z,41.80
2023-04-12T13:42:18.678Z,41.90
2023-04-12T13:44:45.886Z,42.40
2023-04-12T13:47:14.002Z,43.00
2023-04-12T13:49:42.062Z,43.50
2023-04-12T13:52:09.063Z,44.10
2023-04-12T13:54:36.116Z,44.30
2023-04-12T13:57:04.021Z,44.60
2023-04-12T13:59:31.208Z,44.80
2023-04-12T14:01:58.358Z,44.50
2023-04-12T14:04:29.418Z,44.40
2023-04-12T14:06:57.186Z,44.90
2023-04-12T14:09:29.417Z,45.00
2023-04-12T14:11:57.926Z,44.90
2023-04-12T14:14:26.413Z,44.70
2023-04-12T14:16:57.191Z,45.20
2023-04-12T14:19:25.167Z,45.60
2023-04-12T14:21:52.188Z,45.50
2023-04-12T14:24:20.316Z,44.80
2023-04-12T14:26:48.532Z,44.90
2023-04-12T14:29:15.522Z,45.00
2023-04-12T14:31:42.441Z,45.20
2023-04-12T14:34:11.006Z,45.80
2023-04-12T14:36:37.905Z,46.30
2023-04-12T14:39:05.925Z,46.50
2023-04-12T14:41:35.768Z,46.50
2023-04-12T14:44:02.810Z,46.70
2023-04-12T14:46:31.880Z,47.30
2023-04-12T14:49:01.557Z,48.30
2023-04-12T14:51:29.454Z,48.10
2023-04-12T14:53:56.902Z,48.10
2023-04-12T14:56:29.144Z,48.00
2023-04-12T14:58:57.737Z,48.00
2023-04-12T15:01:25.804Z,46.70
2023-04-12T15:03:53.331Z,45.40
2023-04-12T15:06:23.470Z,44.60
2023-04-12T15:08:54.691Z,43.90
2023-04-12T15:11:27.419Z,43.90
2023-04-12T15:13:55.277Z,43.50
2023-04-12T15:16:22.570Z,43.70
2023-04-12T15:18:52.126Z,42.00
2023-04-12T15:21:19.506Z,42.30
2023-04-12T15:23:46.361Z,42.20
2023-04-12T15:26:14.312Z,41.80
2023-04-12T15:28:45.316Z,41.60
2023-04-12T15:31:12.253Z,42.20
2023-04-12T15:33:41.655Z,42.60
2023-04-12T15:36:08.750Z,42.90
2023-04-12T15:38:42.645Z,43.50
2023-04-12T15:41:09.931Z,43.60
2023-04-12T15:43:38.547Z,44.00
2023-04-12T15:46:05.896Z,43.90
2023-04-12T15:48:33.051Z,44.40
2023-04-12T15:51:00.388Z,44.70
2023-04-12T15:53:27.747Z,44.70
2023-04-12T15:55:57.646Z,44.40
2023-04-12T15:58:27.319Z,43.40
2023-04-12T16:00:54.602Z,43.20
2023-04-12T16:03:26.593Z,43.40
2023-04-12T16:05:53.962Z,42.50
2023-04-12T16:08:22.608Z,41.20
2023-04-12T16:10:50.834Z,40.70
2023-04-12T16:13:18.729Z,40.50
2023-04-12T16:15:46.095Z,40.60
2023-04-12T16:18:13.470Z,41.10
2023-04-12T16:20:43.208Z,41.50
2023-04-12T16:23:10.106Z,42.10
2023-04-12T16:25:39.508Z,42.40
2023-04-12T16:28:07.812Z,42.40
2023-04-12T16:30:35.469Z,42.30
2023-04-12T16:33:03.343Z,41.90
2023-04-12T16:35:30.290Z,41.20
2023-04-12T16:37:57.304Z,41.10
2023-04-12T16:40:24.747Z,41.50
2023-04-12T16:42:51.712Z,41.30
2023-04-12T16:45:19.325Z,41.00
2023-04-12T16:47:47.105Z,41.00
2023-04-12T16:50:15.529Z,40.80
2023-04-12T16:52:42.781Z,41.60
2023-04-12T16:55:15.858Z,42.20
2023-04-12T16:57:44.432Z,42.80
2023-04-12T17:00:20.740Z,43.40
2023-04-12T17:02:50.032Z,44.20
2023-04-12T17:05:18.292Z,44.60
2023-04-12T17:07:51.493Z,45.10
2023-04-12T17:10:19.778Z,45.50
2023-04-12T17:12:52.228Z,45.70
2023-04-12T17:15:20.963Z,46.00
2023-04-12T17:17:51.550Z,46.10
2023-04-12T17:20:23.209Z,46.30
2023-04-12T17:22:51.314Z,46.60
2023-04-12T17:25:19.885Z,46.80
2023-04-12T17:27:49.097Z,47.00
2023-04-12T17:30:17.635Z,47.10
2023-04-12T17:32:47.556Z,47.30
2023-04-12T17:35:14.644Z,47.50
2023-04-12T17:37:41.797Z,47.80
2023-04-12T17:40:10.620Z,48.00
2023-04-12T17:42:42.138Z,48.20
2023-04-12T17:45:12.511Z,48.30
2023-04-12T17:47:41.020Z,48.30
2023-04-12T17:50:11.691Z,48.50
2023-04-12T17:52:38.474Z,48.60
2023-04-12T17:55:07.437Z,48.70
2023-04-12T17:57:34.624Z,48.90
2023-04-12T18:00:01.583Z,49.00
2023-04-12T18:02:28.910Z,49.10
2023-04-12T18:04:55.970Z,49.10
2023-04-12T18:07:23.442Z,49.20
2023-04-12T18:09:51.458Z,49.30
2023-04-12T18:12:18.489Z,49.50
2023-04-12T18:14:45.490Z,49.60
2023-04-12T18:17:12.559Z,49.70
2023-04-12T18:19:39.419Z,49.80
2023-04-12T18:22:06.212Z,50.00
2023-04-12T18:24:33.343Z,50.20
2023-04-12T18:27:01.644Z,50.30
2023-04-12T18:29:28.623Z,50.50
2023-04-12T18:31:58.189Z,50.80
2023-04-12T18:34:25.043Z,51.00
2023-04-12T18:36:51.939Z,51.20
2023-04-12T18:39:21.504Z,51.20
2023-04-12T18:41:48.637Z,51.30
2023-04-12T18:44:17.231Z,51.50
2023-04-12T18:46:44.321Z,51.50
2023-04-12T18:49:11.912Z,51.60
2023-04-12T18:51:38.772Z,51.70
2023-04-12T18:54:08.279Z,51.80
2023-04-12T18:56:35.093Z,51.90
2023-04-12T18:59:03.092Z,52.00
2023-04-12T19:01:32.856Z,52.10
2023-04-12T19:04:01.860Z,52.20
2023-04-12T19:06:29.102Z,52.20
2023-04-12T19:08:56.193Z,52.20
2023-04-12T19:11:24.108Z,52.30
2023-04-12T19:13:51.005Z,52.40
2023-04-12T19:16:17.946Z,52.50
2023-04-12T19:18:45.159Z,52.60
2023-04-12T19:21:13.337Z,52.80
2023-04-12T19:23:40.172Z,53.40
2023-04-12T19:26:07.574Z,53.00
2023-04-12T19:28:34.457Z,53.00
2023-04-12T19:31:08.914Z,53.10
2023-04-12T19:33:37.226Z,53.30
2023-04-12T19:36:04.725Z,53.40
2023-04-12T19:38:31.732Z,53.40
2023-04-12T19:40:58.970Z,53.60
2023-04-12T19:43:26.987Z,53.70
2023-04-12T19:45:54.103Z,53.80
2023-04-12T19:48:21.353Z,53.90
2023-04-12T19:50:49.142Z,54.00
2023-04-12T19:53:21.572Z,54.00
2023-04-12T19:55:49.963Z,54.10
2023-04-12T19:58:19.311Z,54.20
2023-04-12T20:00:52.202Z,54.30
2023-04-12T20:03:19.250Z,54.40
2023-04-12T20:05:47.983Z,54.50
2023-04-12T20:08:15.889Z,54.60
2023-04-12T20:10:43.060Z,54.60
2023-04-12T20:13:15.172Z,54.80
2023-04-12T20:15:43.313Z,54.80
2023-04-12T20:18:13.041Z,55.10
2023-04-12T20:20:44.921Z,55.00
2023-04-12T20:23:16.159Z,55.10
2023-04-12T20:25:44.084Z,55.30
2023-04-12T20:28:12.100Z,55.90
2023-04-12T20:30:39.091Z,55.40
2023-04-12T20:33:06.828Z,55.60
2023-04-12T20:35:34.109Z,55.60
2023-04-12T20:38:01.271Z,55.70
2023-04-12T20:40:29.803Z,55.80
2023-04-12T20:42:56.994Z,55.90
2023-04-12T20:45:24.000Z,55.90
2023-04-12T20:47:51.255Z,56.20
2023-04-12T20:50:18.906Z,56.00
2023-04-12T20:52:48.682Z,55.90
2023-04-12T20:55:17.400Z,55.80
2023-04-12T20:57:44.407Z,55.90
2023-04-12T21:00:18.537Z,55.70
2023-04-12T21:02:46.211Z,55.60
2023-04-12T21:05:17.106Z,55.30
2023-04-12T21:07:47.148Z,55.20
2023-04-12T21:10:15.055Z,54.90
2023-04-12T21:12:42.683Z,54.70
2023-04-12T21:15:11.999Z,55.10
2023-04-12T21:17:41.478Z,54.20
2023-04-12T21:20:16.768Z,53.90
2023-04-12T21:22:45.204Z,53.70
2023-04-12T21:25:16.083Z,53.50
2023-04-12T21:27:43.888Z,53.30
2023-04-12T21:30:11.317Z,53.10
2023-04-12T21:32:38.610Z,53.00
2023-04-12T21:35:12.315Z,52.90
2023-04-12T21:37:39.916Z,52.80
2023-04-12T21:40:12.679Z,52.70
2023-04-12T21:42:42.624Z,52.70
2023-04-12T21:45:10.009Z,52.70
2023-04-12T21:47:40.154Z,52.70
2023-04-12T21:50:08.466Z,52.70
2023-04-12T21:52:35.772Z,52.60
2023-04-12T21:55:04.154Z,52.60
2023-04-12T21:57:32.076Z,52.50
2023-04-12T21:59:59.071Z,52.40
2023-04-12T22:02:27.472Z,52.30
2023-04-12T22:04:54.616Z,52.30
2023-04-12T22:07:21.750Z,52.20
2023-04-12T22:09:50.739Z,52.20
2023-04-12T22:12:18.150Z,52.20
2023-04-12T22:14:47.442Z,52.20
2023-04-12T22:17:14.907Z,52.10
2023-04-12T22:19:42.171Z,52.10
2023-04-12T22:22:09.820Z,52.10
2023-04-12T22:24:38.669Z,52.40
2023-04-12T22:27:06.984Z,52.60
2023-04-12T22:29:35.188Z,52.70
2023-04-12T22:32:02.637Z,53.10
2023-04-12T22:34:29.471Z,53.50
2023-04-12T22:36:58.873Z,54.00
2023-04-12T22:39:27.039Z,54.30
2023-04-12T22:41:57.514Z,54.70
2023-04-12T22:44:25.693Z,55.10
2023-04-12T22:46:54.667Z,55.40
2023-04-12T22:49:28.203Z,55.50
2023-04-12T22:51:56.205Z,55.70
2023-04-12T22:54:25.821Z,55.90
2023-04-12T22:56:52.901Z,56.20
2023-04-12T22:59:22.398Z,56.60
2023-04-12T23:01:49.503Z,56.80
2023-04-12T23:04:17.024Z,57.00
2023-04-12T23:06:44.667Z,57.20
2023-04-12T23:09:12.511Z,57.30
2023-04-12T23:11:42.154Z,57.70
2023-04-12T23:14:09.927Z,58.00
2023-04-12T23:16:44.495Z,58.10
2023-04-12T23:19:12.439Z,58.40
2023-04-12T23:21:40.392Z,58.40
2023-04-12T23:24:09.472Z,58.50
2023-04-12T23:26:36.421Z,58.60
2023-04-12T23:29:06.388Z,58.80
2023-04-12T23:31:33.484Z,59.10
2023-04-12T23:34:05.242Z,59.20
2023-04-12T23:36:33.004Z,59.40
2023-04-12T23:39:07.191Z,59.70
2023-04-12T23:41:34.427Z,59.90
2023-04-12T23:44:02.063Z,60.00
2023-04-12T23:46:29.085Z,60.10
2023-04-12T23:48:56.100Z,60.20
2023-04-12T23:51:23.013Z,60.30
2023-04-12T23:53:50.267Z,60.30
2023-04-12T23:56:17.297Z,60.50
2023-04-12T23:58:44.375Z,60.40
